Time;durP1;ratioP1;P1;durP2;ratioP2;P2;SDS_P1;SDS_P2;PMS_P1;PMS_P2;Temp;Humidity;BMP_temperature;BMP_pressure;BME280_temperature;BME280_humidity;BME280_pressure;Samples;Min_cycle;Max_cycle;Signal;HPM_P1;HPM_P2
2021/11/02 00:00:33;;;;;;;;;;;3.90;99.90;;;;;;5070791;28;19948;-75
2021/11/02 00:02:59;;;;;;;;;;;3.90;99.90;;;;;;5053305;28;19912;-75
2021/11/02 00:05:24;;;;;;;;;;;4.00;99.90;;;;;;5071065;28;20424;-75
2021/11/02 00:07:50;;;;;;;;;;;4.10;99.90;;;;;;5075647;28;19962;-75
2021/11/02 00:10:15;;;;;;;;;;;4.10;99.90;;;;;;5090364;28;19961;-76
2021/11/02 00:12:41;;;;;;;;;;;4.00;99.90;;;;;;5091252;28;19908;-77
2021/11/02 00:15:07;;;;;;;;;;;3.80;99.90;;;;;;5091359;28;19954;-75
2021/11/02 00:17:35;;;;;;;;;;;3.60;99.90;;;;;;5091173;28;19912;-75
2021/11/02 00:20:03;;;;;;;;;;;3.50;99.90;;;;;;5090748;28;20198;-75
2021/11/02 00:22:29;;;;;;;;;;;3.40;99.90;;;;;;5091154;28;19908;-75
2021/11/02 00:25:03;;;;;;;;;;;3.30;99.90;;;;;;5073110;28;19912;-75
2021/11/02 00:27:30;;;;;;;;;;;3.20;99.90;;;;;;5072967;28;19908;-75
2021/11/02 00:29:55;;;;;;;;;;;3.10;99.90;;;;;;5090609;28;19978;-75
2021/11/02 00:32:21;;;;;;;;;;;3.20;99.90;;;;;;5072844;28;20357;-75
2021/11/02 00:34:47;;;;;;;;;;;3.10;99.90;;;;;;5090943;28;19908;-75
2021/11/02 00:37:12;;;;;;;;;;;3.10;99.90;;;;;;5090983;28;20001;-75
2021/11/02 00:39:38;;;;;;;;;;;3.10;99.90;;;;;;5070633;28;19909;-80
2021/11/02 00:42:03;;;;;;;;;;;3.10;99.90;;;;;;5070800;28;19908;-75
2021/11/02 00:44:29;;;;;;;;;;;3.20;99.90;;;;;;5070788;28;20340;-75
2021/11/02 00:46:56;;;;;;;;;;;3.30;99.90;;;;;;5070761;28;20020;-75
2021/11/02 00:49:24;;;;;;;;;;;3.40;99.90;;;;;;5070376;28;19915;-75
2021/11/02 00:51:49;;;;;;;;;;;3.50;99.90;;;;;;5052454;28;20345;-75
2021/11/02 00:54:15;;;;;;;;;;;3.50;99.90;;;;;;5070729;28;19912;-75
2021/11/02 00:56:41;;;;;;;;;;;3.60;99.90;;;;;;5052567;28;19915;-75
2021/11/02 00:59:07;;;;;;;;;;;3.70;99.90;;;;;;5071227;28;19912;-74
2021/11/02 01:01:33;;;;;;;;;;;3.80;99.90;;;;;;5070450;28;19953;-75
2021/11/02 01:03:59;;;;;;;;;;;3.80;99.90;;;;;;5052483;28;20412;-76
2021/11/02 01:06:25;;;;;;;;;;;3.80;99.90;;;;;;5070574;28;19916;-77
2021/11/02 01:08:51;;;;;;;;;;;3.90;99.90;;;;;;5065270;28;19908;-78
2021/11/02 01:11:17;;;;;;;;;;;4.00;99.90;;;;;;5093024;28;19960;-75
2021/11/02 01:13:43;;;;;;;;;;;4.00;99.90;;;;;;5094284;28;19948;-78
2021/11/02 01:16:08;;;;;;;;;;;4.10;99.90;;;;;;5094285;28;20319;-75
2021/11/02 01:18:34;;;;;;;;;;;4.20;99.90;;;;;;5076179;28;19912;-74
2021/11/02 01:20:59;;;;;;;;;;;4.30;99.90;;;;;;5093767;28;19915;-75
2021/11/02 01:23:25;;;;;;;;;;;4.30;99.90;;;;;;5094191;28;19998;-77
2021/11/02 01:25:50;;;;;;;;;;;4.20;99.90;;;;;;5094092;28;20377;-75
2021/11/02 01:28:16;;;;;;;;;;;4.20;99.90;;;;;;5075922;28;19909;-75
2021/11/02 01:30:41;;;;;;;;;;;4.20;99.90;;;;;;5093281;28;19912;-75
2021/11/02 01:33:07;;;;;;;;;;;4.10;99.90;;;;;;5093768;28;19915;-78
2021/11/02 01:35:33;;;;;;;;;;;4.00;99.90;;;;;;5093860;28;19908;-75
2021/11/02 01:38:00;;;;;;;;;;;4.00;99.90;;;;;;5087820;28;19908;-75
2021/11/02 01:40:26;;;;;;;;;;;4.10;99.90;;;;;;5072898;28;20312;-75
2021/11/02 01:42:52;;;;;;;;;;;4.20;99.90;;;;;;5073611;28;19954;-75
2021/11/02 01:45:17;;;;;;;;;;;4.30;99.90;;;;;;5073532;28;19909;-79
2021/11/02 01:47:44;;;;;;;;;;;4.30;99.90;;;;;;5073269;28;20034;-75
2021/11/02 01:50:10;;;;;;;;;;;4.40;99.90;;;;;;5072788;28;19966;-76
2021/11/02 01:52:36;;;;;;;;;;;4.50;99.90;;;;;;5073172;28;20285;-75
2021/11/02 01:55:02;;;;;;;;;;;4.70;99.90;;;;;;5073142;28;19912;-76
2021/11/02 01:57:28;;;;;;;;;;;4.80;99.90;;;;;;5073187;28;19908;-76
2021/11/02 01:59:54;;;;;;;;;;;4.90;99.90;;;;;;5072845;28;19915;-75
2021/11/02 02:02:35;;;;;;;;;;;4.90;99.90;;;;;;5054953;28;19908;-76
2021/11/02 02:05:08;;;;;;;;;;;4.80;99.90;;;;;;5073114;28;20377;-75
2021/11/02 02:07:42;;;;;;;;;;;4.70;99.90;;;;;;5075209;28;19932;-75
2021/11/02 02:10:14;;;;;;;;;;;4.70;99.90;;;;;;5092393;28;19968;-79
2021/11/02 02:12:55;;;;;;;;;;;4.50;99.90;;;;;;5092266;28;20199;-75
2021/11/02 02:15:21;;;;;;;;;;;4.30;99.90;;;;;;5093026;28;19915;-75
2021/11/02 02:17:56;;;;;;;;;;;4.10;99.90;;;;;;5074908;28;19908;-75
2021/11/02 02:20:45;;;;;;;;;;;4.20;99.90;;;;;;5092601;28;19987;-75
2021/11/02 02:23:21;;;;;;;;;;;4.30;99.90;;;;;;5093331;28;20386;-77
2021/11/02 02:25:49;;;;;;;;;;;4.60;99.90;;;;;;5093182;28;19978;-79
2021/11/02 02:28:14;;;;;;;;;;;4.70;99.90;;;;;;5074641;28;19908;-78
2021/11/02 02:30:52;;;;;;;;;;;4.80;99.90;;;;;;5092582;28;19919;-75
2021/11/02 02:33:19;;;;;;;;;;;4.70;99.90;;;;;;5092772;28;19962;-75
2021/11/02 02:35:45;;;;;;;;;;;4.70;99.90;;;;;;5092570;28;20321;-76
2021/11/02 02:38:11;;;;;;;;;;;4.80;99.90;;;;;;5084773;28;19913;-76
2021/11/02 02:40:38;;;;;;;;;;;4.80;99.90;;;;;;5053717;28;19908;-78
2021/11/02 02:43:04;;;;;;;;;;;5.00;99.90;;;;;;5072417;28;19908;-75
2021/11/02 02:45:30;;;;;;;;;;;5.30;99.90;;;;;;5072518;28;19931;-75
2021/11/02 02:47:57;;;;;;;;;;;5.30;99.90;;;;;;5072201;28;20385;-75
2021/11/02 02:50:24;;;;;;;;;;;5.20;99.90;;;;;;5071646;28;19990;-76
2021/11/02 02:52:51;;;;;;;;;;;5.20;99.90;;;;;;5072155;28;19991;-75
2021/11/02 02:55:16;;;;;;;;;;;5.10;99.90;;;;;;5072137;28;20320;-75
2021/11/02 02:57:43;;;;;;;;;;;4.80;99.90;;;;;;5072042;28;19995;-75
2021/11/02 03:00:10;;;;;;;;;;;4.70;99.90;;;;;;5071631;28;20359;-75
2021/11/02 03:02:36;;;;;;;;;;;4.70;99.90;;;;;;5053791;28;19920;-78
2021/11/02 03:05:03;;;;;;;;;;;4.90;99.90;;;;;;5071925;28;19909;-77
2021/11/02 03:07:28;;;;;;;;;;;5.00;99.90;;;;;;5055667;28;19931;-75
2021/11/02 03:09:54;;;;;;;;;;;5.00;99.90;;;;;;5091286;28;20433;-76
2021/11/02 03:12:25;;;;;;;;;;;5.00;99.90;;;;;;5073759;28;19959;-75
2021/11/02 03:15:13;;;;;;;;;;;5.10;99.90;;;;;;5092003;28;20371;-75
2021/11/02 03:17:50;;;;;;;;;;;5.10;99.90;;;;;;5092228;28;19912;-75
2021/11/02 03:43:35;;;;;;;;;;;5.20;99.90;;;;;;5091890;28;19919;-75
2021/11/02 03:45:14;;;;;;;;;;;4.40;99.90;;;;;;5071949;28;19943;-74
2021/11/02 03:56:12;;;;;;;;;;;3.90;99.90;;;;;;5071485;28;19916;-75
2021/11/02 03:58:59;;;;;;;;;;;3.80;99.90;;;;;;5072076;28;20323;-75
2021/11/02 04:01:37;;;;;;;;;;;3.70;99.90;;;;;;5070179;28;19931;-75
2021/11/02 04:38:09;;;;;;;;;;;3.70;99.90;;;;;;5070859;28;20332;-75
2021/11/02 04:46:09;;;;;;;;;;;3.30;99.90;;;;;;5072186;28;19915;-75
2021/11/02 06:00:53;;;;;;;;;;;2.60;99.90;;;;;;5047915;28;19908;-75
2021/11/02 06:03:28;;;;;;;;;;;2.50;99.90;;;;;;5093419;28;20263;-75
2021/11/02 06:05:59;;;;;;;;;;;2.70;99.90;;;;;;5093250;28;20397;-75
2021/11/02 06:28:12;;;;;;;;;;;3.00;99.90;;;;;;5072707;28;20286;-75
2021/11/02 06:30:44;;;;;;;;;;;2.80;99.90;;;;;;5071686;28;19913;-73
2021/11/02 06:35:51;;;;;;;;;;;2.60;99.90;;;;;;5072735;28;19912;-73
2021/11/02 06:44:22;;;;;;;;;;;2.80;99.90;;;;;;5092853;28;19977;-75
2021/11/02 06:59:46;;;;;;;;;;;3.10;99.90;;;;;;5092402;28;19957;-75
2021/11/02 07:16:38;;;;;;;;;;;3.40;99.90;;;;;;5080696;28;19914;-77
2021/11/02 07:19:09;;;;;;;;;;;3.60;99.90;;;;;;5071683;28;19912;-79
2021/11/02 07:21:45;;;;;;;;;;;3.80;99.90;;;;;;5087650;28;19935;-74
2021/11/02 07:24:23;;;;;;;;;;;4.00;99.90;;;;;;5084261;28;19909;-75
2021/11/02 07:27:04;;;;;;;;;;;4.20;99.90;;;;;;5078045;28;19946;-75
2021/11/02 08:46:51;;;;;;;;;;;7.80;99.90;;;;;;5092983;28;19931;-75
2021/11/02 08:49:16;;;;;;;;;;;7.70;99.90;;;;;;5087177;28;19931;-76
2021/11/02 08:51:42;;;;;;;;;;;7.60;99.90;;;;;;5072672;28;19912;-74
2021/11/02 08:54:07;;;;;;;;;;;7.60;99.90;;;;;;5076025;28;19923;-74
2021/11/02 08:56:34;;;;;;;;;;;7.70;99.90;;;;;;5078551;28;19954;-74
2021/11/02 08:58:59;;;;;;;;;;;7.80;99.90;;;;;;5064354;28;19908;-75
2021/11/02 09:01:25;;;;;;;;;;;7.80;99.90;;;;;;5086176;28;19941;-75
2021/11/02 09:04:01;;;;;;;;;;;7.60;99.90;;;;;;5086581;28;19951;-77
2021/11/02 09:06:27;;;;;;;;;;;7.40;99.90;;;;;;5066000;28;19908;-79
2021/11/02 09:08:54;;;;;;;;;;;7.20;99.90;;;;;;5072531;28;20327;-77
2021/11/02 09:11:21;;;;;;;;;;;7.10;99.90;;;;;;5069214;28;19962;-75
2021/11/02 09:13:47;;;;;;;;;;;7.10;99.90;;;;;;5097215;28;19943;-74
2021/11/02 09:16:14;;;;;;;;;;;7.20;99.90;;;;;;5094968;28;19909;-77
2021/11/02 09:18:41;;;;;;;;;;;7.20;99.90;;;;;;5065231;28;19909;-75
2021/11/02 09:21:07;;;;;;;;;;;7.30;99.90;;;;;;5095780;28;19908;-74
2021/11/02 09:23:33;;;;;;;;;;;7.30;99.90;;;;;;5097560;28;19954;-75
2021/11/02 09:26:01;;;;;;;;;;;7.30;99.90;;;;;;5092652;28;19909;-75
2021/11/02 09:28:27;;;;;;;;;;;7.30;99.90;;;;;;5090282;28;19916;-75
2021/11/02 09:30:53;;;;;;;;;;;7.30;99.90;;;;;;5059412;28;19912;-75
2021/11/02 09:33:18;;;;;;;;;;;7.50;99.90;;;;;;5084721;28;20285;-75
2021/11/02 09:35:46;;;;;;;;;;;7.40;99.90;;;;;;5086802;28;20318;-75
2021/11/02 09:38:23;;;;;;;;;;;7.40;99.90;;;;;;5088296;28;19931;-75
2021/11/02 09:41:00;;;;;;;;;;;7.50;99.90;;;;;;5101875;28;19915;-74
2021/11/02 09:43:39;;;;;;;;;;;7.60;99.90;;;;;;5075071;28;19912;-75
2021/11/02 09:46:23;;;;;;;;;;;7.60;99.90;;;;;;5089078;28;19916;-74
2021/11/02 09:49:08;;;;;;;;;;;7.80;99.90;;;;;;5098934;28;19915;-75
2021/11/02 09:51:52;;;;;;;;;;;8.00;99.90;;;;;;5081800;28;20295;-75
2021/11/02 09:54:38;;;;;;;;;;;7.70;99.90;;;;;;5077315;28;19974;-75
2021/11/02 09:57:23;;;;;;;;;;;7.60;99.90;;;;;;5084577;28;19908;-75
2021/11/02 09:59:55;;;;;;;;;;;7.30;99.90;;;;;;5073292;28;19931;-75
2021/11/02 10:02:22;;;;;;;;;;;7.40;99.90;;;;;;5077598;28;20338;-75
2021/11/02 10:05:08;;;;;;;;;;;7.40;99.90;;;;;;5080146;28;19954;-75
2021/11/02 10:07:35;;;;;;;;;;;7.40;99.90;;;;;;5092351;28;19909;-75
2021/11/02 10:10:15;;;;;;;;;;;7.50;99.90;;;;;;5052644;28;19924;-75
2021/11/02 10:12:42;;;;;;;;;;;7.50;99.90;;;;;;5088531;28;19908;-74
2021/11/02 10:15:27;;;;;;;;;;;7.40;99.90;;;;;;5090451;28;20263;-75
2021/11/02 10:18:18;;;;;;;;;;;7.30;99.90;;;;;;5070166;28;19909;-74
2021/11/02 10:20:59;;;;;;;;;;;7.30;99.90;;;;;;5075023;28;19939;-75
2021/11/02 10:23:46;;;;;;;;;;;7.30;99.90;;;;;;5088492;28;19912;-75
2021/11/02 10:26:24;;;;;;;;;;;7.50;99.90;;;;;;5072006;28;20334;-75
2021/11/02 10:29:08;;;;;;;;;;;7.70;99.90;;;;;;5078228;28;19908;-75
2021/11/02 10:31:34;;;;;;;;;;;7.90;99.90;;;;;;5076294;28;20458;-75
2021/11/02 10:34:11;;;;;;;;;;;8.00;99.90;;;;;;5081348;28;19908;-75
2021/11/02 10:36:56;;;;;;;;;;;8.10;99.90;;;;;;5083259;28;19958;-75
2021/11/02 10:39:28;;;;;;;;;;;8.10;99.90;;;;;;5072637;28;19908;-74
2021/11/02 10:41:55;;;;;;;;;;;8.20;99.90;;;;;;5072800;28;20077;-75
2021/11/02 10:44:21;;;;;;;;;;;8.10;99.90;;;;;;5056000;28;19962;-75
2021/11/02 10:46:55;;;;;;;;;;;8.30;99.90;;;;;;5092253;28;20011;-75
2021/11/02 10:49:37;;;;;;;;;;;8.20;99.90;;;;;;5092557;28;20278;-75
2021/11/02 10:52:05;;;;;;;;;;;8.40;99.90;;;;;;5092638;28;19912;-75
2021/11/02 10:54:37;;;;;;;;;;;8.60;99.90;;;;;;5093661;28;19908;-75
2021/11/02 10:57:04;;;;;;;;;;;8.80;99.90;;;;;;5074354;28;19908;-75
2021/11/02 10:59:30;;;;;;;;;;;8.80;99.90;;;;;;5074141;28;20435;-74
2021/11/02 11:01:56;;;;;;;;;;;8.60;99.90;;;;;;5075440;28;19912;-75
2021/11/02 11:04:23;;;;;;;;;;;8.90;99.90;;;;;;5072202;28;19923;-75
2021/11/02 11:06:51;;;;;;;;;;;8.90;99.90;;;;;;5072228;28;19915;-75
2021/11/02 11:09:18;;;;;;;;;;;8.90;99.90;;;;;;5086218;28;19908;-75
2021/11/02 11:11:46;;;;;;;;;;;9.00;99.90;;;;;;5092197;28;19958;-75
2021/11/02 11:14:15;;;;;;;;;;;8.90;99.90;;;;;;5093772;28;19985;-74
2021/11/02 11:16:47;;;;;;;;;;;8.50;99.90;;;;;;5077556;28;20227;-75
2021/11/02 11:19:18;;;;;;;;;;;8.40;99.90;;;;;;5097448;28;19954;-75
2021/11/02 11:21:44;;;;;;;;;;;8.40;99.90;;;;;;5095825;28;19991;-74
2021/11/02 11:24:18;;;;;;;;;;;8.50;99.90;;;;;;5078535;28;20350;-75
2021/11/02 11:27:04;;;;;;;;;;;8.70;99.90;;;;;;5096469;28;19961;-75
2021/11/02 11:29:32;;;;;;;;;;;8.80;99.90;;;;;;5078757;28;19915;-75
2021/11/02 11:31:58;;;;;;;;;;;9.20;99.90;;;;;;5095296;28;20014;-75
2021/11/02 11:34:28;;;;;;;;;;;9.70;99.90;;;;;;5078653;28;19915;-76
2021/11/02 11:36:57;;;;;;;;;;;10.30;99.90;;;;;;5095442;28;19908;-76
2021/11/02 11:39:23;;;;;;;;;;;10.80;99.90;;;;;;5077950;28;19908;-75
2021/11/02 11:41:52;;;;;;;;;;;11.10;99.90;;;;;;5057487;28;19908;-75
2021/11/02 11:44:19;;;;;;;;;;;10.50;99.90;;;;;;5060760;28;19920;-75
2021/11/02 11:46:46;;;;;;;;;;;10.10;99.90;;;;;;5095546;28;19962;-75
2021/11/02 11:49:21;;;;;;;;;;;10.10;99.90;;;;;;5095798;28;19916;-75
2021/11/02 11:51:52;;;;;;;;;;;9.90;99.90;;;;;;5094409;28;19916;-75
2021/11/02 11:54:18;;;;;;;;;;;9.90;99.90;;;;;;5094777;28;19908;-74
2021/11/02 11:56:44;;;;;;;;;;;9.80;99.90;;;;;;5095168;28;19919;-75
2021/11/02 11:59:18;;;;;;;;;;;9.50;99.90;;;;;;5095493;28;19971;-75
2021/11/02 12:02:02;;;;;;;;;;;9.00;99.90;;;;;;5095060;28;19908;-74
2021/11/02 12:04:48;;;;;;;;;;;8.80;99.90;;;;;;5095270;28;19908;-74
2021/11/02 12:07:18;;;;;;;;;;;8.80;99.90;;;;;;5094865;28;20271;-74
2021/11/02 12:09:44;;;;;;;;;;;8.80;99.90;;;;;;5081816;28;19942;-75
2021/11/02 12:12:10;;;;;;;;;;;8.90;99.90;;;;;;5075356;28;19915;-75
2021/11/02 12:15:02;;;;;;;;;;;8.80;99.90;;;;;;5075095;28;20430;-74
2021/11/02 12:17:29;;;;;;;;;;;8.90;99.90;;;;;;5072047;28;19909;-75
2021/11/02 12:20:03;;;;;;;;;;;8.70;99.90;;;;;;5074874;28;20343;-75
2021/11/02 12:22:34;;;;;;;;;;;8.80;99.90;;;;;;5074470;28;19912;-75
2021/11/02 12:25:02;;;;;;;;;;;8.80;99.90;;;;;;5071788;28;19908;-75
2021/11/02 12:27:35;;;;;;;;;;;8.80;99.90;;;;;;5053893;28;19916;-75
2021/11/02 12:30:03;;;;;;;;;;;8.80;99.90;;;;;;5070712;28;20288;-75
2021/11/02 12:32:31;;;;;;;;;;;9.00;99.90;;;;;;5053417;28;19909;-75
2021/11/02 12:35:06;;;;;;;;;;;9.10;99.90;;;;;;5073338;28;20363;-75
2021/11/02 12:37:39;;;;;;;;;;;9.50;99.90;;;;;;5088561;28;19954;-75
2021/11/02 12:40:15;;;;;;;;;;;9.80;99.90;;;;;;5070576;28;20382;-75
2021/11/02 12:42:42;;;;;;;;;;;9.70;99.90;;;;;;5071717;28;19977;-75
2021/11/02 12:45:09;;;;;;;;;;;10.00;99.90;;;;;;5093251;28;19916;-75
2021/11/02 12:47:35;;;;;;;;;;;10.10;99.90;;;;;;5095730;28;19912;-75
2021/11/02 12:50:02;;;;;;;;;;;10.20;99.90;;;;;;5078295;28;19919;-74
2021/11/02 12:52:29;;;;;;;;;;;9.90;99.90;;;;;;5096514;28;19908;-75
2021/11/02 12:54:58;;;;;;;;;;;9.70;99.90;;;;;;5077580;28;19909;-75
2021/11/02 12:57:31;;;;;;;;;;;9.60;99.90;;;;;;5077729;28;19908;-75
2021/11/02 12:59:58;;;;;;;;;;;9.60;99.90;;;;;;5096042;28;19947;-75
2021/11/02 13:02:32;;;;;;;;;;;9.60;99.90;;;;;;5094319;28;19961;-75
2021/11/02 13:04:59;;;;;;;;;;;9.60;99.90;;;;;;5096615;28;19946;-75
2021/11/02 13:07:26;;;;;;;;;;;9.50;99.90;;;;;;5097883;28;19909;-75
2021/11/02 13:09:52;;;;;;;;;;;9.30;99.90;;;;;;5079347;28;20435;-75
2021/11/02 13:12:23;;;;;;;;;;;8.60;99.90;;;;;;5056527;28;19999;-75
2021/11/02 13:14:49;;;;;;;;;;;8.00;99.90;;;;;;5074686;28;19908;-75
2021/11/02 13:17:20;;;;;;;;;;;7.60;99.90;;;;;;5074150;28;19915;-75
2021/11/02 13:19:50;;;;;;;;;;;7.50;99.90;;;;;;5073886;28;20385;-75
2021/11/02 13:22:26;;;;;;;;;;;7.20;99.90;;;;;;5056144;28;20306;-75
2021/11/02 13:25:05;;;;;;;;;;;7.10;99.90;;;;;;5073999;28;19919;-75
2021/11/02 13:27:32;;;;;;;;;;;7.00;99.90;;;;;;5074159;28;19909;-75
2021/11/02 13:30:17;;;;;;;;;;;7.10;99.90;;;;;;5073885;28;20366;-75
2021/11/02 13:33:02;;;;;;;;;;;7.10;99.90;;;;;;5074354;28;19909;-75
2021/11/02 13:35:36;;;;;;;;;;;7.00;99.90;;;;;;5081658;28;19912;-75
2021/11/02 13:38:21;;;;;;;;;;;7.00;99.90;;;;;;5093600;28;19987;-74
2021/11/02 13:40:46;;;;;;;;;;;7.00;99.90;;;;;;5093778;28;19981;-74
2021/11/02 13:43:22;;;;;;;;;;;7.00;99.90;;;;;;5090731;28;19921;-75
2021/11/02 13:45:48;;;;;;;;;;;7.00;99.90;;;;;;5086905;28;20366;-75
2021/11/02 13:48:13;;;;;;;;;;;7.00;99.90;;;;;;5096389;28;19915;-75
2021/11/02 13:50:39;;;;;;;;;;;7.10;99.90;;;;;;5093860;28;20033;-75
2021/11/02 13:53:05;;;;;;;;;;;7.20;99.90;;;;;;5094261;28;19961;-75
2021/11/02 13:55:30;;;;;;;;;;;7.40;99.90;;;;;;5095068;28;19908;-75
2021/11/02 13:57:57;;;;;;;;;;;7.80;99.90;;;;;;5094711;28;20270;-75
2021/11/02 14:00:23;;;;;;;;;;;8.10;99.90;;;;;;5094291;28;19935;-75
2021/11/02 14:02:48;;;;;;;;;;;8.10;99.90;;;;;;5094622;28;20412;-75
2021/11/02 14:05:14;;;;;;;;;;;8.20;99.90;;;;;;5094329;28;19997;-75
2021/11/02 14:07:40;;;;;;;;;;;8.00;99.90;;;;;;5094192;28;20279;-75
2021/11/02 14:10:07;;;;;;;;;;;8.20;99.90;;;;;;5087026;28;19973;-75
2021/11/02 14:12:36;;;;;;;;;;;8.00;99.90;;;;;;5074073;28;19947;-75
2021/11/02 14:15:10;;;;;;;;;;;7.80;99.90;;;;;;5075954;28;19908;-75
2021/11/02 14:17:37;;;;;;;;;;;7.60;99.90;;;;;;5085271;28;19958;-74
2021/11/02 14:20:03;;;;;;;;;;;7.60;99.90;;;;;;5094191;28;19908;-74
2021/11/02 14:22:43;;;;;;;;;;;7.60;99.90;;;;;;5075955;28;19961;-75
2021/11/02 14:25:09;;;;;;;;;;;7.60;99.90;;;;;;5075572;28;20148;-75
2021/11/02 14:27:53;;;;;;;;;;;7.60;99.90;;;;;;5093695;28;20339;-75
2021/11/02 14:30:30;;;;;;;;;;;7.60;99.90;;;;;;5093008;28;20027;-75
2021/11/02 14:32:56;;;;;;;;;;;7.50;99.90;;;;;;5093538;28;20390;-75
2021/11/02 14:35:35;;;;;;;;;;;7.50;99.90;;;;;;5092359;28;19957;-75
2021/11/02 14:38:08;;;;;;;;;;;7.40;99.90;;;;;;5093077;28;19978;-75
2021/11/02 14:40:37;;;;;;;;;;;7.40;99.90;;;;;;5073954;28;19908;-75
2021/11/02 14:43:12;;;;;;;;;;;7.40;99.90;;;;;;5073631;28;19909;-75
2021/11/02 14:45:39;;;;;;;;;;;7.30;99.90;;;;;;5076984;28;19908;-75
2021/11/02 14:48:22;;;;;;;;;;;7.10;99.90;;;;;;5093473;28;20390;-75
2021/11/02 14:51:03;;;;;;;;;;;7.00;99.90;;;;;;5092659;28;19919;-75
2021/11/02 14:53:34;;;;;;;;;;;7.10;99.90;;;;;;5092978;28;19915;-75
2021/11/02 14:56:06;;;;;;;;;;;7.30;99.90;;;;;;5092940;28;20275;-75
2021/11/02 14:58:44;;;;;;;;;;;7.40;99.90;;;;;;5092918;28;19951;-75
2021/11/02 15:01:12;;;;;;;;;;;7.40;99.90;;;;;;5083929;28;19958;-75
2021/11/02 15:03:38;;;;;;;;;;;7.30;99.90;;;;;;5080778;28;20139;-75
2021/11/02 15:06:05;;;;;;;;;;;7.20;99.90;;;;;;5072524;28;19908;-75
2021/11/02 15:08:31;;;;;;;;;;;7.10;99.90;;;;;;5063523;28;19908;-75
2021/11/02 15:10:58;;;;;;;;;;;7.00;99.90;;;;;;5085910;28;19955;-75
2021/11/02 15:13:24;;;;;;;;;;;6.90;99.90;;;;;;5074449;28;19915;-75
2021/11/02 15:15:51;;;;;;;;;;;6.80;99.90;;;;;;5092360;28;19908;-75
2021/11/02 15:18:16;;;;;;;;;;;6.70;99.90;;;;;;5092925;28;19912;-75
2021/11/02 15:20:42;;;;;;;;;;;6.70;99.90;;;;;;5092106;28;20271;-75
2021/11/02 15:23:07;;;;;;;;;;;6.70;99.90;;;;;;5092594;28;19914;-75
2021/11/02 15:25:34;;;;;;;;;;;6.70;99.90;;;;;;5092430;28;20385;-75
2021/11/02 15:28:00;;;;;;;;;;;6.70;99.90;;;;;;5092079;28;19982;-75
2021/11/02 15:30:26;;;;;;;;;;;7.00;99.90;;;;;;5091687;28;19916;-75
2021/11/02 15:32:52;;;;;;;;;;;7.20;99.90;;;;;;5092112;28;19986;-75
2021/11/02 15:35:21;;;;;;;;;;;7.30;99.90;;;;;;5081742;28;19908;-75
2021/11/02 15:37:47;;;;;;;;;;;7.20;99.90;;;;;;5083995;28;19938;-75
2021/11/02 15:40:14;;;;;;;;;;;7.10;99.90;;;;;;5083600;28;19908;-75
2021/11/02 15:42:45;;;;;;;;;;;6.90;99.90;;;;;;5071647;28;19908;-75
2021/11/02 15:45:30;;;;;;;;;;;6.70;99.90;;;;;;5070545;28;20421;-75
2021/11/02 15:48:01;;;;;;;;;;;6.50;99.90;;;;;;5071727;28;19924;-75
2021/11/02 15:50:27;;;;;;;;;;;6.30;99.90;;;;;;5071105;28;19913;-75
2021/11/02 15:52:57;;;;;;;;;;;6.20;99.90;;;;;;5071381;28;19908;-74
2021/11/02 15:55:23;;;;;;;;;;;6.10;99.90;;;;;;5071332;28;20007;-75
2021/11/02 15:57:53;;;;;;;;;;;6.10;99.90;;;;;;5071181;28;20413;-75
2021/11/02 16:00:27;;;;;;;;;;;5.90;99.90;;;;;;5070955;28;19909;-74
2021/11/02 16:02:55;;;;;;;;;;;5.80;99.90;;;;;;5053284;28;19916;-75
2021/11/02 16:05:39;;;;;;;;;;;5.70;99.90;;;;;;5071158;28;19975;-75
2021/11/02 16:08:18;;;;;;;;;;;5.60;99.90;;;;;;5078053;28;20240;-75
2021/11/02 16:10:44;;;;;;;;;;;5.60;99.90;;;;;;5090838;28;19946;-75
2021/11/02 16:13:10;;;;;;;;;;;5.70;99.90;;;;;;5091333;28;19908;-74
2021/11/02 16:15:39;;;;;;;;;;;5.60;99.90;;;;;;5091342;28;19912;-74
2021/11/02 16:18:05;;;;;;;;;;;5.50;99.90;;;;;;5091333;28;19908;-75
2021/11/02 16:20:30;;;;;;;;;;;5.40;99.90;;;;;;5090543;28;19908;-75
2021/11/02 16:22:59;;;;;;;;;;;5.30;99.90;;;;;;5073158;28;19959;-75
2021/11/02 16:25:29;;;;;;;;;;;5.40;99.90;;;;;;5079558;28;20381;-75
2021/11/02 16:27:58;;;;;;;;;;;5.30;99.90;;;;;;5087268;28;19953;-75
2021/11/02 16:30:26;;;;;;;;;;;5.30;99.90;;;;;;5090557;28;19935;-75
2021/11/02 16:32:52;;;;;;;;;;;5.30;99.90;;;;;;5091468;28;19915;-75
2021/11/02 16:35:36;;;;;;;;;;;5.40;99.90;;;;;;5091070;28;19912;-74
2021/11/02 16:38:20;;;;;;;;;;;5.60;99.90;;;;;;5092994;28;19915;-74
2021/11/02 16:41:09;;;;;;;;;;;5.70;99.90;;;;;;5093600;28;20002;-75
2021/11/02 16:43:34;;;;;;;;;;;5.80;99.90;;;;;;5066588;28;19912;-74
2021/11/02 16:46:01;;;;;;;;;;;5.70;99.90;;;;;;5095641;28;19908;-75
2021/11/02 16:48:38;;;;;;;;;;;5.60;99.90;;;;;;5095537;28;19908;-75
2021/11/02 16:51:04;;;;;;;;;;;5.50;99.90;;;;;;5094810;28;19912;-74
2021/11/02 16:53:29;;;;;;;;;;;5.40;99.90;;;;;;5095639;28;19908;-75
2021/11/02 16:56:00;;;;;;;;;;;5.30;99.90;;;;;;5095293;28;20388;-75
2021/11/02 16:58:27;;;;;;;;;;;5.20;99.90;;;;;;5095576;28;19912;-75
2021/11/02 17:01:09;;;;;;;;;;;5.10;99.90;;;;;;5095053;28;19915;-75
2021/11/02 17:03:35;;;;;;;;;;;5.10;99.90;;;;;;5095499;28;19950;-75
2021/11/02 17:06:09;;;;;;;;;;;5.10;99.90;;;;;;5095223;28;19908;-74
2021/11/02 17:08:34;;;;;;;;;;;5.10;99.90;;;;;;5084085;28;19908;-76
2021/11/02 17:11:00;;;;;;;;;;;5.20;99.90;;;;;;5073857;28;19916;-74
2021/11/02 17:13:27;;;;;;;;;;;5.30;99.90;;;;;;5076857;28;19914;-74
2021/11/02 17:15:54;;;;;;;;;;;5.20;99.90;;;;;;5083916;28;19908;-74
2021/11/02 17:18:38;;;;;;;;;;;5.20;99.90;;;;;;5068437;28;19909;-75
2021/11/02 17:21:08;;;;;;;;;;;5.10;99.90;;;;;;5082413;28;19915;-75
2021/11/02 17:23:35;;;;;;;;;;;5.00;99.90;;;;;;5082798;28;19913;-75
2021/11/02 17:26:02;;;;;;;;;;;5.00;99.90;;;;;;5081625;28;19908;-75
2021/11/02 17:28:28;;;;;;;;;;;5.20;99.90;;;;;;5081089;28;19909;-75
2021/11/02 17:30:54;;;;;;;;;;;5.30;99.90;;;;;;5080523;28;19962;-75
2021/11/02 17:33:19;;;;;;;;;;;5.50;99.90;;;;;;5080372;28;19976;-75
2021/11/02 17:35:48;;;;;;;;;;;5.40;99.90;;;;;;5080751;28;19931;-75
2021/11/02 17:38:14;;;;;;;;;;;5.40;99.90;;;;;;5087540;28;19908;-75
2021/11/02 17:40:40;;;;;;;;;;;5.30;99.90;;;;;;5081390;28;20419;-74
2021/11/02 17:43:07;;;;;;;;;;;5.30;99.90;;;;;;5100591;28;19919;-74
2021/11/02 17:45:33;;;;;;;;;;;5.10;99.90;;;;;;5099342;28;19912;-75
2021/11/02 17:47:58;;;;;;;;;;;5.00;99.90;;;;;;5092035;28;19908;-74
2021/11/02 17:50:25;;;;;;;;;;;4.80;99.90;;;;;;5090299;28;19916;-74
2021/11/02 17:52:51;;;;;;;;;;;4.80;99.90;;;;;;5089715;28;19999;-74
2021/11/02 17:55:17;;;;;;;;;;;4.80;99.90;;;;;;5090420;28;20322;-74
2021/11/02 17:57:46;;;;;;;;;;;4.70;99.90;;;;;;5071912;28;19908;-74
2021/11/02 18:00:13;;;;;;;;;;;4.80;99.90;;;;;;5089869;28;20322;-74
2021/11/02 18:02:39;;;;;;;;;;;4.60;99.90;;;;;;5090226;28;19965;-74
2021/11/02 18:05:05;;;;;;;;;;;4.50;99.90;;;;;;5093420;28;19908;-74
2021/11/02 18:07:31;;;;;;;;;;;4.60;99.90;;;;;;5091344;28;19915;-74
2021/11/02 18:09:57;;;;;;;;;;;4.60;99.90;;;;;;5072261;28;19920;-74
2021/11/02 18:12:27;;;;;;;;;;;4.70;99.90;;;;;;5055005;28;19909;-74
2021/11/02 18:14:52;;;;;;;;;;;4.60;99.90;;;;;;5076303;28;19916;-74
2021/11/02 18:17:18;;;;;;;;;;;4.40;99.90;;;;;;5077279;28;20283;-74
2021/11/02 18:19:45;;;;;;;;;;;4.30;99.90;;;;;;5076808;28;19916;-74
2021/11/02 18:22:10;;;;;;;;;;;4.30;99.90;;;;;;5076024;28;20387;-74
2021/11/02 18:24:36;;;;;;;;;;;4.20;99.90;;;;;;5073897;28;19956;-74
2021/11/02 18:27:02;;;;;;;;;;;4.10;99.90;;;;;;5073316;28;19909;-74
2021/11/02 18:29:27;;;;;;;;;;;4.00;99.90;;;;;;5073166;28;19962;-74
2021/11/02 18:31:53;;;;;;;;;;;4.00;99.90;;;;;;5072693;28;19935;-74
2021/11/02 18:34:19;;;;;;;;;;;4.10;99.90;;;;;;5073275;28;19985;-74
2021/11/02 18:36:46;;;;;;;;;;;4.00;99.90;;;;;;5073114;28;20003;-74
2021/11/02 18:39:12;;;;;;;;;;;3.90;99.90;;;;;;5088494;28;19908;-74
2021/11/02 18:41:37;;;;;;;;;;;3.90;99.90;;;;;;5092192;28;19908;-74
2021/11/02 18:44:03;;;;;;;;;;;3.80;99.90;;;;;;5093214;28;20244;-74
2021/11/02 18:46:28;;;;;;;;;;;3.80;99.90;;;;;;5092425;28;19915;-74
2021/11/02 18:48:55;;;;;;;;;;;3.70;99.90;;;;;;5092554;28;19912;-74
2021/11/02 18:51:20;;;;;;;;;;;3.70;99.90;;;;;;5092131;28;19912;-74
2021/11/02 18:53:46;;;;;;;;;;;3.60;99.90;;;;;;5092406;28;19912;-74
2021/11/02 18:56:11;;;;;;;;;;;3.50;99.90;;;;;;5092589;28;19914;-74
2021/11/02 18:58:37;;;;;;;;;;;3.50;99.90;;;;;;5092504;28;20192;-74
2021/11/02 19:01:04;;;;;;;;;;;3.40;99.90;;;;;;5091722;28;20021;-74
2021/11/02 19:03:29;;;;;;;;;;;3.30;99.90;;;;;;5091377;28;20247;-74
2021/11/02 19:05:55;;;;;;;;;;;3.10;99.90;;;;;;5092425;28;19982;-74
2021/11/02 19:08:20;;;;;;;;;;;3.00;99.90;;;;;;5083148;28;19908;-74
2021/11/02 19:10:47;;;;;;;;;;;3.00;99.90;;;;;;5071198;28;19968;-74
2021/11/02 19:13:13;;;;;;;;;;;3.00;99.90;;;;;;5071902;28;19909;-74
2021/11/02 19:15:40;;;;;;;;;;;3.40;99.90;;;;;;5071813;28;19908;-74
2021/11/02 19:18:06;;;;;;;;;;;3.60;99.90;;;;;;5071824;28;20327;-74